Time;durP1;ratioP1;P1;durP2;ratioP2;P2;SDS_P1;SDS_P2;PMS_P1;PMS_P2;Temp;Humidity;BMP_temperature;BMP_pressure;BME280_temperature;BME280_humidity;BME280_pressure;Samples;Min_cycle;Max_cycle;Signal;HPM_P1;HPM_P2
2021/07/30 00:02:13;;;;;;;8.30;4.43;;;15.10;99.90;;;;;;5032856;28;20315;-75
2021/07/30 00:04:39;;;;;;;15.07;4.70;;;15.10;99.90;;;;;;5032593;28;20231;-75
2021/07/30 00:07:08;;;;;;;12.50;4.20;;;15.10;99.90;;;;;;5032654;28;20200;-75
2021/07/30 00:09:35;;;;;;;11.50;4.50;;;15.10;99.90;;;;;;5032565;28;20291;-75
2021/07/30 00:12:02;;;;;;;12.13;4.57;;;15.10;99.90;;;;;;5033926;28;20200;-74
2021/07/30 00:14:28;;;;;;;11.67;4.40;;;15.10;99.90;;;;;;5039530;28;20271;-74
2021/07/30 00:16:55;;;;;;;8.67;4.23;;;15.00;99.90;;;;;;5039292;28;20231;-74
2021/07/30 00:19:22;;;;;;;8.43;4.57;;;15.10;99.90;;;;;;5039248;28;20713;-75
2021/07/30 00:21:49;;;;;;;13.47;4.57;;;15.10;99.90;;;;;;5039414;28;20255;-74
2021/07/30 00:24:17;;;;;;;8.00;3.90;;;15.00;99.90;;;;;;5039279;28;20613;-74
2021/07/30 00:26:45;;;;;;;11.70;4.20;;;15.10;99.90;;;;;;5039585;28;20235;-73
2021/07/30 00:29:12;;;;;;;10.73;4.30;;;15.10;99.90;;;;;;5038921;28;20280;-74
2021/07/30 00:31:39;;;;;;;10.07;4.53;;;15.00;99.90;;;;;;5038512;28;20207;-74
2021/07/30 00:34:05;;;;;;;9.83;4.30;;;15.00;99.90;;;;;;5039353;28;20228;-73
2021/07/30 00:36:32;;;;;;;11.50;4.50;;;15.00;99.90;;;;;;5047804;28;20265;-75
2021/07/30 00:38:59;;;;;;;14.60;4.83;;;15.10;99.90;;;;;;5044256;28;20247;-74
2021/07/30 00:41:27;;;;;;;12.33;4.60;;;15.10;99.90;;;;;;5038442;28;20299;-77
2021/07/30 00:43:54;;;;;;;13.77;4.83;;;15.00;99.90;;;;;;5038699;28;20193;-76
2021/07/30 00:46:22;;;;;;;10.57;4.43;;;15.00;99.90;;;;;;5036377;28;20362;-75
2021/07/30 00:48:49;;;;;;;11.57;4.70;;;15.00;99.90;;;;;;5038689;28;20231;-74
2021/07/30 00:51:16;;;;;;;11.27;4.90;;;14.90;99.90;;;;;;5038735;28;20232;-74
2021/07/30 00:53:43;;;;;;;16.53;4.90;;;14.90;99.90;;;;;;5035553;28;20280;-74
2021/07/30 00:56:10;;;;;;;13.03;4.60;;;14.90;99.90;;;;;;5038629;28;20208;-77
2021/07/30 00:58:39;;;;;;;13.70;5.17;;;14.90;99.90;;;;;;5038905;28;20280;-75
2021/07/30 01:01:08;;;;;;;16.47;4.83;;;14.90;99.90;;;;;;5039243;28;20535;-76
2021/07/30 01:03:35;;;;;;;9.13;4.27;;;14.90;99.90;;;;;;5038992;28;20219;-75
2021/07/30 01:06:01;;;;;;;10.10;4.87;;;14.90;99.90;;;;;;5039150;28;20232;-75
2021/07/30 01:08:29;;;;;;;13.67;4.63;;;15.00;99.90;;;;;;5038522;28;20196;-74
2021/07/30 01:10:56;;;;;;;15.37;4.33;;;14.90;99.90;;;;;;5038825;28;20201;-75
2021/07/30 01:13:23;;;;;;;11.17;5.23;;;14.80;99.90;;;;;;5038097;28;20280;-77
2021/07/30 01:15:51;;;;;;;16.93;4.77;;;14.80;99.90;;;;;;5038487;28;20189;-75
2021/07/30 01:18:18;;;;;;;17.10;4.93;;;14.90;99.90;;;;;;5038114;28;20288;-75
2021/07/30 01:20:45;;;;;;;14.17;5.13;;;14.90;99.90;;;;;;5038224;28;20284;-76
2021/07/30 01:23:14;;;;;;;10.67;4.77;;;14.80;99.90;;;;;;5038106;28;20193;-77
2021/07/30 01:25:41;;;;;;;10.10;4.50;;;14.80;99.90;;;;;;5035080;28;20283;-75
2021/07/30 01:28:08;;;;;;;13.90;4.70;;;14.80;99.90;;;;;;5035558;28;20275;-76
2021/07/30 01:30:36;;;;;;;15.67;5.53;;;14.90;99.90;;;;;;5035215;28;20189;-75
2021/07/30 01:33:02;;;;;;;8.80;4.23;;;14.90;99.90;;;;;;5032765;28;20201;-74
2021/07/30 01:35:29;;;;;;;11.03;4.63;;;14.80;99.90;;;;;;5034190;28;20227;-75
2021/07/30 01:37:56;;;;;;;11.93;4.40;;;14.80;99.90;;;;;;5034945;28;20266;-74
2021/07/30 01:40:24;;;;;;;11.67;4.83;;;14.90;99.90;;;;;;5031582;28;20243;-75
2021/07/30 01:42:51;;;;;;;15.23;4.37;;;15.00;99.90;;;;;;5035040;28;20209;-74
2021/07/30 01:45:18;;;;;;;13.80;4.97;;;14.90;99.90;;;;;;5034562;28;20275;-75
2021/07/30 01:47:45;;;;;;;13.47;4.73;;;15.00;99.90;;;;;;5034492;28;20296;-75
2021/07/30 01:50:12;;;;;;;14.70;5.00;;;15.00;99.90;;;;;;5034506;28;20291;-77
2021/07/30 01:52:39;;;;;;;10.07;4.43;;;15.00;99.90;;;;;;5035079;28;20576;-75
2021/07/30 01:55:07;;;;;;;9.00;5.00;;;15.00;99.90;;;;;;5035190;28;20200;-75
2021/07/30 01:57:35;;;;;;;11.90;4.67;;;14.90;99.90;;;;;;5032214;28;20243;-75
2021/07/30 02:00:03;;;;;;;15.80;4.90;;;14.90;99.90;;;;;;5034708;28;20624;-75
2021/07/30 02:02:33;;;;;;;11.73;5.03;;;14.80;99.90;;;;;;5034577;28;20208;-75
2021/07/30 02:05:00;;;;;;;15.60;4.47;;;14.80;99.90;;;;;;5034945;28;20201;-75
2021/07/30 02:07:27;;;;;;;12.83;5.10;;;14.80;99.90;;;;;;5034565;28;20193;-74
2021/07/30 02:09:54;;;;;;;12.00;5.10;;;14.90;99.90;;;;;;5032071;28;20220;-75
2021/07/30 02:12:21;;;;;;;12.90;4.40;;;14.80;99.90;;;;;;5034419;28;20199;-76
2021/07/30 02:14:48;;;;;;;11.97;4.73;;;14.80;99.90;;;;;;5034219;28;20276;-76
2021/07/30 02:17:15;;;;;;;11.83;4.90;;;14.80;99.90;;;;;;5034446;28;20524;-75
2021/07/30 02:19:42;;;;;;;9.23;4.80;;;14.80;99.90;;;;;;5033637;28;20199;-75
2021/07/30 02:22:09;;;;;;;15.00;5.17;;;14.80;99.90;;;;;;5033619;28;20305;-75
2021/07/30 02:24:36;;;;;;;10.10;4.13;;;14.90;99.90;;;;;;5034340;28;20205;-76
2021/07/30 02:27:04;;;;;;;14.27;5.20;;;14.90;99.90;;;;;;5034197;28;20271;-74
2021/07/30 02:29:30;;;;;;;15.00;5.33;;;14.90;99.90;;;;;;5034150;28;20225;-76
2021/07/30 02:31:59;;;;;;;15.27;5.60;;;15.00;99.90;;;;;;5033940;28;20654;-75
2021/07/30 02:34:25;;;;;;;16.33;5.50;;;14.90;99.90;;;;;;5034046;28;20659;-76
2021/07/30 02:36:52;;;;;;;15.40;4.83;;;14.90;99.90;;;;;;5032813;28;20660;-75
2021/07/30 02:39:19;;;;;;;10.87;4.80;;;14.90;99.90;;;;;;5031221;28;20195;-75
2021/07/30 02:41:46;;;;;;;12.00;5.17;;;14.90;99.90;;;;;;5033758;28;20303;-76
2021/07/30 02:44:13;;;;;;;14.53;5.93;;;14.80;99.90;;;;;;5033959;28;20212;-76
2021/07/30 02:46:40;;;;;;;18.10;5.60;;;14.80;99.90;;;;;;5031576;28;20542;-76
2021/07/30 02:49:08;;;;;;;13.40;5.40;;;14.80;99.90;;;;;;5033994;28;20202;-76
2021/07/30 02:51:35;;;;;;;14.10;5.73;;;14.70;99.90;;;;;;5033707;28;20201;-76
2021/07/30 02:54:02;;;;;;;12.43;4.93;;;14.80;99.90;;;;;;5033570;28;20232;-74
2021/07/30 02:56:29;;;;;;;11.53;5.20;;;14.70;99.90;;;;;;5033777;28;20276;-75
2021/07/30 02:58:56;;;;;;;11.00;5.20;;;14.80;99.90;;;;;;5033552;28;20671;-75
2021/07/30 03:01:23;;;;;;;12.00;4.87;;;14.70;99.90;;;;;;5033435;28;20658;-75
2021/07/30 03:03:49;;;;;;;15.80;5.37;;;14.60;99.90;;;;;;5033192;28;20655;-76
2021/07/30 03:06:18;;;;;;;11.47;5.20;;;14.50;99.90;;;;;;5033483;28;20284;-74
2021/07/30 03:08:45;;;;;;;16.93;5.33;;;14.60;99.90;;;;;;5033093;28;20283;-75
2021/07/30 03:11:11;;;;;;;13.70;4.87;;;14.60;99.90;;;;;;5033531;28;20518;-76
2021/07/30 03:13:38;;;;;;;20.30;5.33;;;14.50;99.90;;;;;;5032797;28;20197;-75
2021/07/30 03:16:06;;;;;;;12.90;5.00;;;14.50;99.90;;;;;;5030698;28;20570;-76
2021/07/30 03:18:32;;;;;;;15.07;4.83;;;14.40;99.90;;;;;;5032995;28;20197;-76
2021/07/30 03:20:59;;;;;;;11.30;5.13;;;14.40;99.90;;;;;;5031584;28;20192;-75
2021/07/30 03:23:27;;;;;;;12.70;5.37;;;14.40;99.90;;;;;;5032421;28;20777;-76
2021/07/30 03:25:54;;;;;;;13.30;5.20;;;14.40;99.90;;;;;;5032454;28;20193;-75
2021/07/30 03:28:21;;;;;;;13.23;5.17;;;14.50;99.90;;;;;;5032808;28;20223;-75
2021/07/30 03:30:49;;;;;;;13.00;5.10;;;14.50;99.90;;;;;;5032561;28;20590;-76
2021/07/30 03:33:16;;;;;;;9.87;5.27;;;14.50;99.90;;;;;;5032713;28;20560;-75
2021/07/30 03:35:43;;;;;;;13.83;5.30;;;14.50;99.90;;;;;;5032475;28;20193;-74
2021/07/30 03:38:09;;;;;;;13.37;5.43;;;14.40;99.90;;;;;;5032693;28;20287;-74
2021/07/30 03:40:38;;;;;;;13.17;5.87;;;14.40;99.90;;;;;;5032782;28;20199;-74
2021/07/30 03:43:04;;;;;;;19.07;5.27;;;14.40;99.90;;;;;;5032810;28;20221;-74
2021/07/30 03:45:31;;;;;;;16.73;6.30;;;14.40;99.90;;;;;;5033007;28;20193;-76
2021/07/30 03:47:58;;;;;;;14.13;5.90;;;14.40;99.90;;;;;;5031908;28;20192;-75
2021/07/30 03:50:25;;;;;;;19.63;5.83;;;14.40;99.90;;;;;;5033213;28;20222;-75
2021/07/30 03:52:52;;;;;;;11.93;5.47;;;14.40;99.90;;;;;;5032968;28;20669;-76
2021/07/30 03:55:19;;;;;;;14.53;5.57;;;14.30;99.90;;;;;;5032784;28;20738;-76
2021/07/30 03:57:47;;;;;;;12.10;6.03;;;14.30;99.90;;;;;;5033047;28;20192;-77
2021/07/30 04:00:15;;;;;;;15.87;6.10;;;14.30;99.90;;;;;;5033119;28;20288;-75
2021/07/30 04:02:42;;;;;;;10.87;5.47;;;14.40;99.90;;;;;;5032868;28;20302;-76
2021/07/30 04:05:09;;;;;;;12.60;5.43;;;14.40;99.90;;;;;;5032973;28;20617;-76
2021/07/30 04:07:36;;;;;;;16.60;6.07;;;14.50;99.90;;;;;;5032804;28;20624;-76
2021/07/30 04:10:03;;;;;;;16.30;6.27;;;14.50;99.90;;;;;;5032858;28;20291;-77
2021/07/30 04:12:30;;;;;;;13.53;4.87;;;14.60;99.90;;;;;;5032937;28;20205;-76
2021/07/30 04:14:58;;;;;;;14.00;6.03;;;14.60;99.90;;;;;;5033061;28;20288;-75
2021/07/30 04:17:25;;;;;;;11.20;5.47;;;14.70;99.90;;;;;;5032948;28;20288;-75
2021/07/30 04:19:52;;;;;;;11.17;5.33;;;14.80;99.90;;;;;;5032827;28;20288;-75
2021/07/30 04:22:19;;;;;;;17.83;6.13;;;14.90;99.90;;;;;;5032761;28;20274;-76
2021/07/30 04:24:46;;;;;;;13.57;5.63;;;14.90;99.90;;;;;;5032910;28;20299;-75
2021/07/30 04:27:12;;;;;;;14.57;6.03;;;15.00;99.90;;;;;;5032798;28;20197;-76
2021/07/30 04:29:40;;;;;;;18.17;6.40;;;15.00;99.90;;;;;;5032878;28;20193;-77
2021/07/30 04:32:10;;;;;;;10.70;5.87;;;15.00;99.90;;;;;;5032791;28;20223;-74
2021/07/30 04:34:37;;;;;;;17.53;6.00;;;15.10;99.90;;;;;;5032690;28;20200;-74
2021/07/30 04:37:04;;;;;;;15.73;5.87;;;15.20;99.90;;;;;;5032754;28;20199;-76
2021/07/30 04:39:31;;;;;;;11.73;5.60;;;15.20;99.90;;;;;;5032789;28;20203;-75
2021/07/30 04:41:58;;;;;;;13.13;5.60;;;15.30;99.90;;;;;;5032528;28;20647;-75
2021/07/30 04:44:25;;;;;;;10.83;5.73;;;15.30;99.90;;;;;;5032445;28;20626;-75
2021/07/30 04:46:52;;;;;;;13.07;6.20;;;15.40;99.90;;;;;;5032473;28;20279;-76
2021/07/30 04:49:20;;;;;;;14.23;5.80;;;15.50;99.90;;;;;;5032419;28;20674;-75
2021/07/30 04:51:47;;;;;;;13.87;6.07;;;15.70;99.90;;;;;;5032488;28;20296;-76
2021/07/30 04:54:14;;;;;;;12.10;5.83;;;15.70;99.90;;;;;;5032590;28;20279;-75
2021/07/30 04:56:41;;;;;;;16.33;5.77;;;15.80;99.90;;;;;;5032590;28;20193;-76
2021/07/30 04:59:08;;;;;;;12.70;5.83;;;15.80;99.90;;;;;;5033222;28;20554;-76
2021/07/30 05:01:40;;;;;;;12.13;5.40;;;15.90;99.90;;;;;;5036205;28;20193;-76
2021/07/30 05:04:07;;;;;;;13.13;5.77;;;15.90;99.90;;;;;;5036341;28;20217;-76
2021/07/30 05:06:36;;;;;;;13.97;5.73;;;15.90;99.90;;;;;;5036252;28;20193;-75
2021/07/30 05:09:03;;;;;;;14.10;5.43;;;16.00;99.90;;;;;;5035968;28;20228;-75
2021/07/30 05:11:29;;;;;;;16.23;5.33;;;16.20;99.90;;;;;;5035963;28;20285;-75
2021/07/30 05:13:56;;;;;;;13.80;5.37;;;16.50;99.90;;;;;;5035940;28;20537;-75
2021/07/30 05:16:23;;;;;;;11.63;5.40;;;16.70;99.90;;;;;;5035824;28;20287;-75
2021/07/30 05:18:50;;;;;;;11.83;5.17;;;17.10;99.90;;;;;;5036054;28;20207;-76
2021/07/30 05:21:17;;;;;;;9.63;4.57;;;18.00;99.90;;;;;;5035844;28;20231;-77
2021/07/30 05:23:45;;;;;;;9.23;5.00;;;19.40;99.90;;;;;;5035789;28;20283;-75
2021/07/30 05:26:12;;;;;;;9.60;5.03;;;20.60;99.90;;;;;;5035851;28;20283;-74
2021/07/30 05:28:39;;;;;;;10.57;4.53;;;21.60;99.90;;;;;;5035708;28;20193;-75
2021/07/30 05:31:06;;;;;;;9.55;4.72;;;22.70;99.90;;;;;;5035592;28;20193;-76
2021/07/30 05:33:35;;;;;;;8.25;4.30;;;23.00;99.90;;;;;;5035910;28;20308;-76
2021/07/30 05:36:02;;;;;;;9.60;4.25;;;23.10;99.90;;;;;;5035522;28;20794;-75
2021/07/30 05:38:29;;;;;;;10.27;4.60;;;23.10;99.90;;;;;;5035291;28;20247;-75
2021/07/30 05:40:57;;;;;;;9.25;4.15;;;23.10;99.90;;;;;;5035454;28;20197;-78
2021/07/30 05:43:24;;;;;;;6.60;3.78;;;23.60;99.90;;;;;;5035271;28;20220;-76
2021/07/30 05:45:52;;;;;;;8.60;4.32;;;24.20;99.90;;;;;;5035637;28;20279;-76
2021/07/30 05:48:18;;;;;;;9.18;3.63;;;24.50;99.90;;;;;;5035568;28;20201;-76
2021/07/30 05:50:48;;;;;;;8.73;3.85;;;24.50;99.90;;;;;;5035423;28;20193;-75
2021/07/30 05:53:15;;;;;;;7.78;4.40;;;23.90;99.90;;;;;;5035159;28;20200;-75
2021/07/30 05:55:42;;;;;;;11.13;3.90;;;23.70;99.90;;;;;;5035258;28;20623;-75
2021/07/30 05:58:11;;;;;;;8.57;4.30;;;23.90;99.90;;;;;;5035096;28;20662;-75
2021/07/30 06:00:38;;;;;;;13.63;4.22;;;23.80;99.90;;;;;;5035328;28;20188;-77
2021/07/30 06:03:05;;;;;;;7.43;4.00;;;23.70;99.90;;;;;;5035165;28;20227;-76
2021/07/30 06:05:32;;;;;;;5.80;3.45;;;23.40;99.90;;;;;;5035141;28;20235;-75
2021/07/30 06:07:59;;;;;;;8.27;3.65;;;23.00;99.90;;;;;;5035068;28;20226;-76
2021/07/30 06:10:26;;;;;;;8.45;3.35;;;22.80;99.90;;;;;;5034626;28;20669;-75
2021/07/30 06:12:53;;;;;;;7.75;3.70;;;22.80;99.90;;;;;;5034808;28;20328;-76
2021/07/30 06:15:23;;;;;;;8.20;3.00;;;23.00;99.90;;;;;;5034817;28;20659;-76
2021/07/30 06:17:50;;;;;;;4.97;2.92;;;23.20;99.90;;;;;;5034873;28;20208;-77
2021/07/30 06:20:17;;;;;;;4.55;3.13;;;23.40;99.90;;;;;;5034863;28;20287;-75
2021/07/30 06:22:45;;;;;;;9.52;3.00;;;23.70;99.90;;;;;;5034614;28;20221;-75
2021/07/30 06:25:12;;;;;;;7.45;2.80;;;23.80;99.90;;;;;;5034558;28;20593;-76
2021/07/30 06:27:40;;;;;;;4.40;3.00;;;23.70;99.90;;;;;;5034825;28;20229;-76
2021/07/30 06:30:08;;;;;;;9.15;2.90;;;23.90;99.90;;;;;;5034651;28;20232;-76
2021/07/30 06:32:38;;;;;;;5.60;2.78;;;24.00;99.90;;;;;;5034535;28;20200;-76
2021/07/30 06:35:06;;;;;;;3.92;2.45;;;24.00;99.90;;;;;;5034462;28;20284;-76
2021/07/30 06:37:33;;;;;;;6.88;2.63;;;24.50;99.90;;;;;;5034420;28;20215;-76
2021/07/30 06:40:01;;;;;;;5.40;2.35;;;25.30;99.90;;;;;;5034670;28;20199;-76
2021/07/30 06:42:28;;;;;;;5.05;2.35;;;26.40;99.90;;;;;;5034316;28;20288;-77
2021/07/30 06:44:54;;;;;;;5.05;2.42;;;26.40;99.90;;;;;;5034305;28;20602;-75
2021/07/30 06:47:23;;;;;;;5.63;2.38;;;26.20;99.90;;;;;;5034462;28;20224;-75
2021/07/30 06:49:51;;;;;;;4.05;2.55;;;26.40;99.90;;;;;;5034328;28;20189;-75
2021/07/30 06:52:18;;;;;;;5.28;2.60;;;26.00;99.90;;;;;;5034226;28;20284;-75
2021/07/30 06:54:45;;;;;;;3.88;2.38;;;25.20;99.90;;;;;;5034465;28;20193;-77
2021/07/30 06:57:13;;;;;;;4.88;2.17;;;24.80;99.90;;;;;;5034359;28;20199;-76
2021/07/30 06:59:40;;;;;;;5.85;2.38;;;24.30;99.90;;;;;;5034226;28;20193;-76
2021/07/30 07:02:07;;;;;;;9.57;2.63;;;24.20;99.90;;;;;;5033997;28;20192;-76
2021/07/30 07:04:34;;;;;;;8.13;2.55;;;24.50;99.90;;;;;;5034001;28;20225;-76
2021/07/30 07:07:03;;;;;;;7.28;2.47;;;24.50;99.90;;;;;;5033956;28;20193;-77
2021/07/30 07:09:30;;;;;;;5.90;2.38;;;24.60;99.90;;;;;;5034163;28;20196;-76
2021/07/30 07:11:57;;;;;;;9.20;2.88;;;25.20;99.90;;;;;;5033779;28;20655;-76
2021/07/30 07:14:24;;;;;;;3.65;2.40;;;25.60;99.90;;;;;;5033793;28;20292;-77
2021/07/30 07:16:50;;;;;;;5.38;2.40;;;26.20;99.90;;;;;;5034088;28;20224;-75
2021/07/30 07:19:17;;;;;;;4.85;2.10;;;26.60;99.90;;;;;;5033711;28;20228;-75
2021/07/30 07:21:44;;;;;;;3.85;2.25;;;26.20;99.90;;;;;;5033331;28;20199;-76
2021/07/30 07:24:12;;;;;;;6.90;2.67;;;26.00;99.90;;;;;;5033394;28;20315;-74
2021/07/30 07:26:40;;;;;;;8.15;2.30;;;25.30;99.90;;;;;;5033490;28;20195;-76
2021/07/30 07:29:07;;;;;;;3.70;2.90;;;24.80;99.90;;;;;;5033538;28;20189;-76
2021/07/30 07:31:34;;;;;;;7.88;2.58;;;25.00;99.90;;;;;;5033488;28;20193;-77
2021/07/30 07:34:01;;;;;;;7.20;2.20;;;24.80;99.90;;;;;;5033366;28;20201;-76
2021/07/30 07:36:29;;;;;;;8.15;2.92;;;24.80;99.90;;;;;;5033630;28;20621;-74
2021/07/30 07:38:56;;;;;;;5.15;2.50;;;24.50;99.90;;;;;;5033551;28;20211;-77
2021/07/30 07:41:25;;;;;;;8.50;2.85;;;24.70;99.90;;;;;;5033422;28;20195;-76
2021/07/30 07:43:52;;;;;;;8.50;2.65;;;24.60;99.90;;;;;;5033409;28;20216;-75
2021/07/30 07:46:19;;;;;;;9.90;2.78;;;24.80;99.90;;;;;;5033302;28;20220;-75
2021/07/30 07:48:46;;;;;;;9.02;2.55;;;24.60;99.90;;;;;;5033082;28;20278;-76
2021/07/30 07:51:13;;;;;;;7.80;2.67;;;24.80;99.90;;;;;;5033342;28;20220;-75
2021/07/30 07:53:40;;;;;;;4.22;2.55;;;24.70;99.90;;;;;;5033106;28;20284;-75
2021/07/30 07:56:08;;;;;;;5.05;2.42;;;24.90;99.90;;;;;;5033141;28;20540;-77
2021/07/30 07:58:36;;;;;;;5.65;2.33;;;25.80;99.90;;;;;;5033068;28;20251;-77
2021/07/30 08:01:03;;;;;;;5.45;2.35;;;27.80;99.90;;;;;;5032668;28;20593;-76
2021/07/30 08:03:30;;;;;;;6.50;2.60;;;28.80;99.90;;;;;;5032964;28;20311;-75
2021/07/30 08:05:57;;;;;;;5.97;2.90;;;29.30;99.90;;;;;;5032891;28;20663;-77
2021/07/30 08:08:24;;;;;;;5.13;2.30;;;29.80;99.90;;;;;;5033086;28;20199;-75
2021/07/30 08:10:51;;;;;;;2.63;2.10;;;29.80;99.90;;;;;;5033117;28;20207;-75
2021/07/30 08:13:18;;;;;;;5.25;2.20;;;29.50;99.90;;;;;;5032958;28;20200;-77
2021/07/30 08:15:46;;;;;;;4.00;2.60;;;28.50;99.90;;;;;;5033912;28;20283;-76
2021/07/30 08:18:13;;;;;;;7.32;2.67;;;28.10;99.90;;;;;;5035033;28;20287;-77
2021/07/30 08:20:40;;;;;;;3.78;2.15;;;28.00;99.90;;;;;;5035585;28;20216;-76
2021/07/30 08:23:07;;;;;;;4.70;2.30;;;27.60;99.90;;;;;;5034429;28;20216;-76
2021/07/30 08:25:33;;;;;;;2.97;2.40;;;27.90;99.90;;;;;;5035624;28;20196;-77
2021/07/30 08:28:04;;;;;;;4.78;2.38;;;28.10;99.90;;;;;;5036636;28;20193;-77
2021/07/30 08:30:31;;;;;;;10.02;2.80;;;28.10;99.90;;;;;;5036398;28;20281;-77
2021/07/30 08:32:59;;;;;;;5.72;2.20;;;28.10;99.90;;;;;;5034778;28;20189;-78
2021/07/30 08:35:26;;;;;;;5.03;2.13;;;28.70;99.90;;;;;;5038468;28;20284;-78
2021/07/30 08:37:53;;;;;;;4.45;2.30;;;29.80;99.90;;;;;;5037937;28;20591;-76
2021/07/30 08:40:20;;;;;;;3.13;2.30;;;32.00;99.90;;;;;;5036678;28;20284;-77
2021/07/30 08:42:48;;;;;;;9.13;3.05;;;33.10;99.90;;;;;;5036561;28;20193;-76
2021/07/30 08:45:15;;;;;;;5.93;2.55;;;33.80;99.90;;;;;;5036453;28;20235;-76
2021/07/30 08:47:44;;;;;;;4.00;2.22;;;35.00;99.90;;;;;;5036634;28;20193;-75
2021/07/30 08:50:14;;;;;;;5.68;2.25;;;35.50;99.90;;;;;;5036527;28;20207;-75
2021/07/30 08:52:43;;;;;;;6.78;2.40;;;35.70;99.90;;;;;;5036379;28;20643;-75
2021/07/30 08:55:12;;;;;;;5.25;2.17;;;35.80;99.90;;;;;;5036151;28;20220;-76
2021/07/30 08:57:41;;;;;;;5.28;2.42;;;35.80;99.90;;;;;;5036247;28;20710;-76
2021/07/30 09:00:09;;;;;;;7.10;2.20;;;35.90;99.90;;;;;;5036363;28;20203;-76
2021/07/30 09:02:37;;;;;;;6.50;2.28;;;36.00;99.90;;;;;;5036143;28;20193;-76
2021/07/30 09:05:26;;;;;;;7.35;2.58;;;36.40;99.90;;;;;;5036148;28;20687;-75
2021/07/30 09:07:54;;;;;;;5.35;2.55;;;36.40;99.90;;;;;;5036017;28;20685;-75
2021/07/30 09:10:36;;;;;;;2.53;2.10;;;37.10;99.90;;;;;;5036361;28;20287;-77
2021/07/30 09:13:21;;;;;;;4.75;2.35;;;37.40;99.90;;;;;;5036446;28;20224;-75
2021/07/30 09:15:58;;;;;;;6.30;2.60;;;37.30;99.90;;;;;;5036176;28;20228;-77
2021/07/30 09:18:27;;;;;;;5.40;2.47;;;35.70;99.90;;;;;;5036166;28;20205;-76
2021/07/30 09:20:55;;;;;;;5.57;2.60;;;33.90;99.90;;;;;;5036152;28;20283;-76
2021/07/30 09:23:24;;;;;;;8.20;2.55;;;32.30;99.90;;;;;;5035969;28;20192;-76
2021/07/30 09:25:51;;;;;;;5.55;2.45;;;31.60;99.90;;;;;;5035890;28;20225;-76
2021/07/30 09:28:20;;;;;;;4.43;2.58;;;30.90;99.90;;;;;;5035682;28;20192;-75
2021/07/30 09:30:58;;;;;;;6.60;2.42;;;30.00;99.90;;;;;;5035634;28;20647;-75
2021/07/30 09:33:26;;;;;;;3.17;2.40;;;29.40;99.90;;;;;;5035574;28;20674;-75
2021/07/30 09:36:01;;;;;;;4.90;2.80;;;28.90;99.90;;;;;;5035785;28;20275;-76
2021/07/30 09:38:29;;;;;;;5.32;2.72;;;28.40;99.90;;;;;;5035891;28;20208;-75
2021/07/30 09:41:12;;;;;;;4.93;3.08;;;28.00;99.90;;;;;;5035644;28;20200;-75
2021/07/30 09:43:44;;;;;;;5.05;2.80;;;27.10;99.90;;;;;;5035637;28;20201;-76
2021/07/30 09:46:13;;;;;;;6.53;3.28;;;26.70;99.90;;;;;;5034803;28;20185;-76
2021/07/30 09:48:50;;;;;;;4.07;3.10;;;26.70;99.90;;;;;;5035321;28;20616;-75
2021/07/30 09:51:19;;;;;;;4.53;2.92;;;26.90;99.90;;;;;;5035382;28;20196;-75
2021/07/30 09:53:47;;;;;;;6.65;2.95;;;27.10;99.90;;;;;;5035311;28;20235;-76
2021/07/30 09:56:15;;;;;;;5.50;2.72;;;27.60;99.90;;;;;;5035494;28;20228;-76
2021/07/30 09:58:45;;;;;;;2.70;2.50;;;27.60;99.90;;;;;;5035424;28;20661;-76
2021/07/30 10:01:15;;;;;;;5.18;2.80;;;27.50;99.90;;;;;;5035250;28;20205;-76
2021/07/30 10:03:44;;;;;;;9.25;3.20;;;27.40;99.90;;;;;;5035216;28;20224;-76
2021/07/30 10:06:13;;;;;;;4.60;2.65;;;27.20;99.90;;;;;;5034749;28;20208;-75
2021/07/30 10:08:43;;;;;;;5.95;3.15;;;27.30;99.90;;;;;;5035229;28;20213;-76
2021/07/30 10:11:11;;;;;;;5.80;2.85;;;27.00;99.90;;;;;;5035031;28;20628;-76
2021/07/30 10:13:47;;;;;;;6.50;2.80;;;27.00;99.90;;;;;;5034957;28;20546;-75
2021/07/30 10:16:17;;;;;;;4.47;2.95;;;26.70;99.90;;;;;;5035073;28;20263;-77
2021/07/30 10:18:45;;;;;;;4.07;2.50;;;27.10;99.90;;;;;;5034805;28;20199;-75
2021/07/30 10:21:16;;;;;;;4.75;2.80;;;27.20;99.90;;;;;;5035191;28;20193;-77
2021/07/30 10:23:50;;;;;;;6.55;2.92;;;27.40;99.90;;;;;;5034828;28;20718;-76
2021/07/30 10:26:21;;;;;;;5.50;2.70;;;27.40;99.90;;;;;;5034966;28;20222;-75
2021/07/30 10:28:48;;;;;;;7.22;3.10;;;27.40;99.90;;;;;;5034964;28;20203;-75
2021/07/30 10:31:15;;;;;;;4.90;2.72;;;27.60;99.90;;;;;;5034695;28;20287;-75
2021/07/30 10:33:52;;;;;;;4.40;2.83;;;27.10;99.90;;;;;;5034655;28;20197;-75
2021/07/30 10:36:37;;;;;;;7.05;3.25;;;27.00;99.90;;;;;;5034613;28;20196;-75
2021/07/30 10:39:11;;;;;;;5.97;3.08;;;27.00;99.90;;;;;;5034530;28;20200;-76
2021/07/30 10:41:40;;;;;;;6.88;3.00;;;26.90;99.90;;;;;;5034354;28;20543;-75
2021/07/30 10:44:08;;;;;;;4.38;2.60;;;26.60;99.90;;;;;;5034491;28;20643;-75
2021/07/30 10:46:35;;;;;;;5.18;2.80;;;26.80;99.90;;;;;;5034539;28;20192;-75
2021/07/30 10:49:22;;;;;;;3.88;2.80;;;27.10;99.90;;;;;;5034498;28;20196;-75
2021/07/30 10:51:49;;;;;;;3.88;2.72;;;27.50;99.90;;;;;;5034100;28;20196;-76
2021/07/30 10:54:48;;;;;;;5.63;2.60;;;27.10;99.90;;;;;;5034128;28;20221;-76
2021/07/30 10:57:48;;;;;;;4.38;2.80;;;27.20;99.90;;;;;;5033434;28;20200;-75
2021/07/30 11:00:15;;;;;;;15.77;3.03;;;26.80;99.90;;;;;;5034128;28;20189;-77
2021/07/30 11:03:07;;;;;;;8.60;2.97;;;26.60;99.90;;;;;;5034211;28;20197;-76
2021/07/30 11:05:35;;;;;;;4.85;2.75;;;27.60;99.90;;;;;;5034177;28;20313;-75
2021/07/30 11:08:03;;;;;;;3.45;2.70;;;28.20;99.90;;;;;;5033869;28;20195;-77
2021/07/30 11:10:31;;;;;;;5.20;2.88;;;27.90;99.90;;;;;;5034076;28;20276;-77
2021/07/30 11:13:01;;;;;;;5.47;2.70;;;28.70;99.90;;;;;;5033805;28;20279;-75
2021/07/30 11:15:34;;;;;;;6.50;2.70;;;28.50;99.90;;;;;;5033811;28;20709;-75
2021/07/30 11:18:02;;;;;;;4.25;2.80;;;28.10;99.90;;;;;;5033997;28;20193;-76
2021/07/30 11:20:36;;;;;;;4.60;2.50;;;28.20;99.90;;;;;;5033763;28;20203;-76
2021/07/30 11:23:06;;;;;;;5.07;2.13;;;28.70;99.90;;;;;;5033944;28;20275;-74
2021/07/30 11:25:34;;;;;;;3.55;2.65;;;29.80;99.90;;;;;;5033345;28;20246;-75
2021/07/30 11:28:02;;;;;;;4.63;2.70;;;30.60;99.90;;;;;;5030769;28;20288;-74
2021/07/30 11:30:30;;;;;;;3.95;2.78;;;30.70;99.90;;;;;;5033044;28;20537;-77
2021/07/30 11:32:58;;;;;;;3.78;2.90;;;31.10;99.90;;;;;;5033041;28;20185;-76
2021/07/30 11:35:29;;;;;;;6.03;3.13;;;31.00;99.90;;;;;;5033116;28;20196;-76
2021/07/30 11:38:00;;;;;;;3.22;2.50;;;29.70;99.90;;;;;;5033045;28;20201;-76
2021/07/30 11:40:27;;;;;;;3.42;2.80;;;28.60;99.90;;;;;;5030040;28;20192;-75
2021/07/30 11:43:07;;;;;;;4.72;2.95;;;27.90;99.90;;;;;;5032864;28;20193;-75
2021/07/30 11:45:35;;;;;;;4.90;2.40;;;27.80;99.90;;;;;;5033092;28;20217;-75
2021/07/30 11:48:10;;;;;;;4.93;2.67;;;27.30;99.90;;;;;;5032904;28;20276;-75
2021/07/30 11:50:38;;;;;;;4.28;2.58;;;26.40;99.90;;;;;;5029971;28;20196;-75
2021/07/30 11:53:08;;;;;;;5.05;3.08;;;25.50;99.90;;;;;;5032843;28;20279;-76
2021/07/30 11:55:35;;;;;;;4.05;2.97;;;24.70;99.90;;;;;;5032738;28;20193;-76
2021/07/30 11:58:11;;;;;;;6.38;3.10;;;24.10;99.90;;;;;;5032808;28;20296;-76
2021/07/30 12:00:39;;;;;;;5.43;3.10;;;23.60;99.90;;;;;;5032642;28;20208;-74
2021/07/30 12:03:19;;;;;;;7.82;3.40;;;23.30;99.90;;;;;;5032564;28;20326;-76
2021/07/30 12:05:49;;;;;;;7.75;3.10;;;22.80;99.90;;;;;;5032515;28;20298;-77
2021/07/30 12:08:18;;;;;;;5.78;3.30;;;22.70;99.90;;;;;;5032489;28;20181;-76
2021/07/30 12:10:46;;;;;;;5.85;3.20;;;22.70;99.90;;;;;;5030484;28;20189;-74
2021/07/30 12:13:15;;;;;;;5.63;3.30;;;23.00;99.90;;;;;;5032400;28;20195;-74
2021/07/30 12:15:42;;;;;;;3.45;2.78;;;23.10;99.90;;;;;;5032572;28;20204;-75
2021/07/30 12:18:09;;;;;;;4.18;3.17;;;23.10;99.90;;;;;;5032771;28;20285;-75
2021/07/30 12:20:38;;;;;;;7.72;3.30;;;23.10;99.90;;;;;;5032705;28;20598;-76
2021/07/30 12:23:06;;;;;;;3.78;3.15;;;22.80;99.90;;;;;;5032454;28;20603;-75
2021/07/30 12:25:35;;;;;;;3.88;3.00;;;22.60;99.90;;;;;;5031807;28;20263;-76
2021/07/30 12:28:06;;;;;;;4.32;3.13;;;22.80;99.90;;;;;;5032094;28;20204;-76
2021/07/30 12:30:35;;;;;;;6.55;3.30;;;22.90;99.90;;;;;;5032688;28;20531;-75
2021/07/30 12:33:02;;;;;;;5.20;3.55;;;23.20;99.90;;;;;;5032022;28;20196;-75
2021/07/30 12:35:36;;;;;;;5.60;3.33;;;23.50;99.90;;;;;;5032163;28;20279;-75
2021/07/30 12:38:06;;;;;;;3.97;3.47;;;23.50;99.90;;;;;;5032292;28;20200;-76
2021/07/30 12:40:33;;;;;;;5.18;3.80;;;23.30;99.90;;;;;;5032095;28;20188;-76
2021/07/30 12:43:11;;;;;;;4.07;3.60;;;22.70;99.90;;;;;;5032259;28;20275;-76
2021/07/30 12:45:44;;;;;;;5.65;3.70;;;22.50;99.90;;;;;;5032176;28;20317;-77
2021/07/30 12:48:17;;;;;;;6.55;3.67;;;22.50;99.90;;;;;;5032101;28;20195;-75
2021/07/30 12:50:44;;;;;;;5.03;3.90;;;22.80;99.90;;;;;;5029518;28;20203;-76